Time;durP1;ratioP1;P1;durP2;ratioP2;P2;SDS_P1;SDS_P2;PMS_P1;PMS_P2;Temp;Humidity;BMP_temperature;BMP_pressure;BME280_temperature;BME280_humidity;BME280_pressure;Samples;Min_cycle;Max_cycle;Signal;HPM_P1;HPM_P2
2023/05/12 00:02:06;;;;;;;86.70;36.72;;;12.00;99.90;;;;;;4972636;28;20054;-64
2023/05/12 00:04:32;;;;;;;77.72;36.45;;;11.80;99.90;;;;;;4985789;28;20133;-64
2023/05/12 00:06:57;;;;;;;72.28;31.88;;;11.90;99.90;;;;;;4971418;28;20140;-64
2023/05/12 00:09:23;;;;;;;73.00;32.70;;;11.90;99.90;;;;;;4991747;28;20038;-64
2023/05/12 00:11:49;;;;;;;67.93;31.98;;;11.80;99.90;;;;;;4984675;28;20045;-64
2023/05/12 00:14:15;;;;;;;69.53;34.55;;;11.90;99.90;;;;;;4984862;28;20051;-64
2023/05/12 00:16:40;;;;;;;72.13;32.88;;;12.00;99.90;;;;;;5005294;28;20551;-64
2023/05/12 00:19:06;;;;;;;66.32;31.77;;;11.70;99.90;;;;;;4972482;28;20034;-64
2023/05/12 00:21:32;;;;;;;61.13;30.48;;;11.90;99.90;;;;;;4966241;28;20084;-64
2023/05/12 00:23:58;;;;;;;54.38;29.67;;;11.80;99.90;;;;;;4988375;28;20599;-64
2023/05/12 00:26:23;;;;;;;52.85;27.60;;;11.60;99.90;;;;;;5005153;28;20060;-64
2023/05/12 00:28:49;;;;;;;52.00;28.25;;;11.70;99.90;;;;;;5003955;28;20813;-64
2023/05/12 00:31:15;;;;;;;59.58;28.70;;;11.90;99.90;;;;;;4958437;28;20048;-64
2023/05/12 00:33:41;;;;;;;54.80;27.95;;;11.90;99.90;;;;;;4997864;28;20085;-64
2023/05/12 00:36:07;;;;;;;50.92;27.27;;;11.90;99.90;;;;;;4983532;28;20037;-64
2023/05/12 00:38:33;;;;;;;49.53;26.85;;;11.90;99.90;;;;;;5007203;28;20045;-64
2023/05/12 00:41:00;;;;;;;46.85;26.27;;;11.80;99.90;;;;;;4985248;28;20053;-66
2023/05/12 00:43:25;;;;;;;53.22;27.42;;;12.00;99.90;;;;;;4986869;28;20121;-64
2023/05/12 00:45:52;;;;;;;51.20;27.50;;;12.10;99.90;;;;;;4984660;28;20095;-64
2023/05/12 00:48:18;;;;;;;48.42;27.05;;;12.00;99.90;;;;;;4986942;28;20581;-64
2023/05/12 00:50:44;;;;;;;54.85;28.25;;;12.10;99.90;;;;;;4999754;28;20505;-64
2023/05/12 00:53:11;;;;;;;54.70;28.13;;;11.80;99.90;;;;;;5023930;28;20132;-65
2023/05/12 00:55:36;;;;;;;58.15;29.77;;;11.80;99.90;;;;;;4979958;28;20053;-65
2023/05/12 00:58:02;;;;;;;57.20;29.02;;;11.80;99.90;;;;;;4985931;28;20037;-64
2023/05/12 01:00:28;;;;;;;58.15;29.73;;;11.80;99.90;;;;;;5018702;28;20093;-64
2023/05/12 01:02:57;;;;;;;53.42;29.52;;;11.90;99.90;;;;;;4952074;28;20084;-64
2023/05/12 01:05:29;;;;;;;54.33;27.77;;;11.90;99.90;;;;;;5008408;28;20046;-63
2023/05/12 01:07:56;;;;;;;55.13;28.10;;;11.70;99.90;;;;;;4982185;28;20054;-64
2023/05/12 01:10:22;;;;;;;53.38;27.30;;;12.00;99.90;;;;;;4980275;28;20923;-64
2023/05/12 01:12:48;;;;;;;51.83;27.08;;;12.00;99.90;;;;;;4982738;28;20178;-64
2023/05/12 01:15:14;;;;;;;44.92;26.75;;;12.00;99.90;;;;;;4990797;28;20416;-64
2023/05/12 01:17:45;;;;;;;55.03;28.92;;;11.80;99.90;;;;;;4986938;28;20046;-64
2023/05/12 01:20:13;;;;;;;55.17;28.73;;;11.80;99.90;;;;;;4986859;28;20046;-64
2023/05/12 01:22:40;;;;;;;55.92;28.27;;;11.60;99.90;;;;;;4980361;28;20057;-66
2023/05/12 01:25:11;;;;;;;56.55;29.25;;;11.60;99.90;;;;;;5006217;28;20085;-64
2023/05/12 01:27:39;;;;;;;61.28;29.25;;;11.80;99.90;;;;;;4965479;28;20049;-66
2023/05/12 01:30:06;;;;;;;53.45;27.98;;;11.70;99.90;;;;;;5005956;28;20923;-64
2023/05/12 01:32:33;;;;;;;57.75;28.75;;;11.80;99.90;;;;;;4981909;28;20046;-64
2023/05/12 01:34:59;;;;;;;57.33;28.77;;;11.50;99.90;;;;;;4983784;28;20085;-64
2023/05/12 01:37:25;;;;;;;69.30;30.05;;;11.70;99.90;;;;;;4969844;28;20053;-64
2023/05/12 01:39:52;;;;;;;63.88;30.17;;;11.70;99.90;;;;;;5020513;28;20069;-64
2023/05/12 01:42:18;;;;;;;67.70;30.88;;;11.70;99.90;;;;;;4987680;28;20715;-65
2023/05/12 01:44:44;;;;;;;65.55;31.45;;;11.80;99.90;;;;;;5011095;28;20041;-64
2023/05/12 01:47:10;;;;;;;64.05;30.90;;;11.70;99.90;;;;;;4979500;28;20069;-64
2023/05/12 01:49:39;;;;;;;64.15;32.05;;;11.70;99.90;;;;;;4975652;28;20042;-65
2023/05/12 01:52:05;;;;;;;64.78;30.85;;;11.80;99.90;;;;;;4977313;28;20145;-65
2023/05/12 01:54:30;;;;;;;67.03;31.75;;;11.60;99.90;;;;;;4983789;28;20085;-64
2023/05/12 01:56:56;;;;;;;66.60;30.65;;;11.80;99.90;;;;;;5019379;28;20129;-64
2023/05/12 01:59:22;;;;;;;66.07;32.08;;;11.60;99.90;;;;;;4983540;28;20085;-64
2023/05/12 02:01:48;;;;;;;65.88;31.30;;;11.80;99.90;;;;;;4974370;28;20034;-64
2023/05/12 02:04:13;;;;;;;59.10;31.80;;;11.90;99.90;;;;;;4984317;28;20038;-64
2023/05/12 02:06:39;;;;;;;64.28;31.33;;;11.60;99.90;;;;;;4974680;28;20050;-63
2023/05/12 02:09:05;;;;;;;69.38;31.85;;;11.90;99.90;;;;;;5009117;28;20085;-64
2023/05/12 02:11:30;;;;;;;65.43;33.20;;;11.60;99.90;;;;;;4984391;28;20041;-64
2023/05/12 02:13:57;;;;;;;69.07;33.53;;;11.80;99.90;;;;;;4981580;28;20042;-64
2023/05/12 02:16:23;;;;;;;69.70;32.00;;;11.60;99.90;;;;;;4967811;28;20069;-64
2023/05/12 02:18:48;;;;;;;66.47;32.60;;;11.60;99.90;;;;;;4995820;28;20867;-64
2023/05/12 02:21:14;;;;;;;64.70;31.67;;;11.60;99.90;;;;;;5013691;28;20553;-65
2023/05/12 02:23:40;;;;;;;81.43;35.42;;;11.80;99.90;;;;;;4981679;28;20070;-64
2023/05/12 02:26:06;;;;;;;71.07;32.35;;;11.70;99.90;;;;;;5017323;28;20045;-64
2023/05/12 02:28:32;;;;;;;75.05;34.92;;;11.90;99.90;;;;;;4983564;28;20056;-64
2023/05/12 02:30:58;;;;;;;74.35;36.90;;;11.60;99.90;;;;;;4983583;28;20148;-64
2023/05/12 02:33:23;;;;;;;65.88;34.80;;;11.80;99.90;;;;;;4980541;28;20084;-63
2023/05/12 02:35:49;;;;;;;72.32;36.40;;;11.60;99.90;;;;;;4991328;28;20569;-64
2023/05/12 02:38:15;;;;;;;67.97;35.35;;;11.50;99.90;;;;;;4976204;28;20073;-64
2023/05/12 02:40:41;;;;;;;74.53;36.08;;;11.50;99.90;;;;;;4958673;28;20046;-64
2023/05/12 02:43:07;;;;;;;83.47;38.75;;;11.60;99.90;;;;;;4957845;28;20046;-65
2023/05/12 02:45:32;;;;;;;71.82;38.20;;;11.70;99.90;;;;;;5010598;28;20053;-63
2023/05/12 02:47:58;;;;;;;85.03;38.45;;;11.60;99.90;;;;;;4974039;28;20054;-65
2023/05/12 02:50:24;;;;;;;79.20;38.08;;;11.60;99.90;;;;;;5005803;28;20498;-63
2023/05/12 02:52:50;;;;;;;84.10;38.20;;;11.70;99.90;;;;;;5026200;28;20077;-64
2023/05/12 02:55:16;;;;;;;83.15;39.30;;;11.40;99.90;;;;;;4978758;28;20081;-64
2023/05/12 02:57:43;;;;;;;75.75;38.95;;;11.60;99.90;;;;;;5018925;28;20176;-64
2023/05/12 03:00:09;;;;;;;72.20;38.05;;;11.60;99.90;;;;;;4991452;28;20041;-63
2023/05/12 03:02:38;;;;;;;79.93;38.97;;;11.60;99.90;;;;;;4991896;28;20042;-64
2023/05/12 03:05:05;;;;;;;85.07;40.47;;;11.50;99.90;;;;;;4991963;28;20785;-64
2023/05/12 03:07:30;;;;;;;77.18;39.75;;;11.70;99.90;;;;;;4975212;28;20084;-64
2023/05/12 03:10:00;;;;;;;79.38;38.53;;;11.60;99.90;;;;;;4945861;28;20201;-64
2023/05/12 03:12:28;;;;;;;76.20;38.63;;;11.50;99.90;;;;;;5018306;28;20925;-64
2023/05/12 03:14:54;;;;;;;82.80;39.33;;;11.70;99.90;;;;;;4975285;28;20643;-64
2023/05/12 03:17:20;;;;;;;80.63;40.22;;;11.80;99.90;;;;;;4990343;28;20060;-64
2023/05/12 03:19:46;;;;;;;90.57;41.10;;;11.60;99.90;;;;;;4981673;28;20384;-64
2023/05/12 03:22:12;;;;;;;93.28;44.05;;;11.70;99.90;;;;;;4957003;28;20034;-63
2023/05/12 03:24:38;;;;;;;83.35;41.40;;;11.80;99.90;;;;;;4972892;28;20205;-64
2023/05/12 03:27:04;;;;;;;82.15;39.53;;;11.70;99.90;;;;;;4973601;28;20045;-65
2023/05/12 03:29:30;;;;;;;86.68;41.35;;;11.50;99.90;;;;;;4957846;28;20050;-64
2023/05/12 03:31:56;;;;;;;82.72;39.25;;;11.60;99.90;;;;;;4976293;28;20053;-64
2023/05/12 03:34:21;;;;;;;79.13;37.85;;;11.50;99.90;;;;;;4991386;28;20038;-63
2023/05/12 03:36:47;;;;;;;76.65;37.55;;;11.70;99.90;;;;;;4992025;28;20129;-63
2023/05/12 03:39:13;;;;;;;84.38;38.58;;;11.80;99.90;;;;;;4990856;28;20041;-64
2023/05/12 03:41:38;;;;;;;85.45;38.30;;;11.80;99.90;;;;;;5002966;28;20073;-64
2023/05/12 03:44:07;;;;;;;80.50;38.42;;;11.60;99.90;;;;;;5023226;28;20049;-64
2023/05/12 03:46:32;;;;;;;80.57;38.05;;;11.50;99.90;;;;;;4991257;28;20042;-65
2023/05/12 03:48:58;;;;;;;76.25;35.88;;;11.50;99.90;;;;;;4999281;28;20053;-64
2023/05/12 03:51:24;;;;;;;71.97;34.28;;;11.60;99.90;;;;;;4983422;28;20069;-64
2023/05/12 03:53:50;;;;;;;78.50;35.78;;;11.80;99.90;;;;;;4974839;28;20104;-64
2023/05/12 03:56:16;;;;;;;81.55;36.60;;;11.70;99.90;;;;;;4991887;28;20053;-64
2023/05/12 03:58:42;;;;;;;82.00;36.78;;;11.60;99.90;;;;;;5022384;28;20077;-64
2023/05/12 04:01:08;;;;;;;92.50;38.72;;;11.70;99.90;;;;;;4959085;28;20042;-64
2023/05/12 04:03:34;;;;;;;97.53;43.30;;;11.80;99.90;;;;;;4978132;28;20050;-63
2023/05/12 04:06:01;;;;;;;83.05;39.90;;;11.50;99.90;;;;;;4987551;28;20452;-63
2023/05/12 04:08:28;;;;;;;86.85;42.20;;;11.70;99.90;;;;;;4973552;28;20041;-63
2023/05/12 04:10:57;;;;;;;79.18;39.97;;;11.60;99.90;;;;;;4969834;28;20049;-64
2023/05/12 04:13:24;;;;;;;89.75;41.10;;;11.90;99.90;;;;;;4979252;28;20049;-65
2023/05/12 04:15:50;;;;;;;93.22;40.30;;;11.90;99.90;;;;;;4993546;28;20128;-64
2023/05/12 04:18:16;;;;;;;84.72;41.47;;;11.60;99.90;;;;;;4994748;28;20034;-65
2023/05/12 04:20:43;;;;;;;90.97;40.92;;;11.80;99.90;;;;;;5007906;28;20037;-64
2023/05/12 04:23:09;;;;;;;83.55;41.38;;;11.90;99.90;;;;;;4959615;28;20450;-64
2023/05/12 04:25:41;;;;;;;83.95;40.42;;;11.80;99.90;;;;;;4979433;28;20061;-64
2023/05/12 04:28:07;;;;;;;86.40;40.42;;;11.80;99.90;;;;;;4974227;28;20050;-66
2023/05/12 04:30:33;;;;;;;81.18;39.92;;;12.10;99.90;;;;;;4991996;28;20042;-64
2023/05/12 04:32:59;;;;;;;85.05;41.88;;;11.80;99.90;;;;;;4976358;28;20049;-64
2023/05/12 04:35:25;;;;;;;79.68;39.95;;;11.80;99.90;;;;;;4984612;28;20927;-64
2023/05/12 04:37:51;;;;;;;84.28;41.25;;;11.90;99.90;;;;;;4994806;28;20053;-63
2023/05/12 04:40:16;;;;;;;85.57;41.08;;;12.00;99.90;;;;;;4992637;28;20591;-64
2023/05/12 04:42:42;;;;;;;88.35;40.15;;;12.20;99.90;;;;;;4960154;28;20738;-64
2023/05/12 04:45:08;;;;;;;80.38;40.28;;;12.20;99.90;;;;;;4975711;28;20058;-65
2023/05/12 04:47:34;;;;;;;87.18;42.45;;;12.00;99.90;;;;;;4992577;28;20137;-63
2023/05/12 04:49:59;;;;;;;87.80;41.80;;;12.00;99.90;;;;;;5010282;28;20506;-65
2023/05/12 04:52:25;;;;;;;92.32;43.50;;;12.00;99.90;;;;;;5025972;28;20058;-63
2023/05/12 04:54:52;;;;;;;80.45;40.72;;;12.00;99.90;;;;;;4991552;28;20606;-64
2023/05/12 04:57:18;;;;;;;78.50;40.40;;;12.10;99.90;;;;;;5007398;28;20136;-63
2023/05/12 04:59:43;;;;;;;85.80;42.97;;;12.40;99.90;;;;;;4959627;28;20050;-64
2023/05/12 05:02:10;;;;;;;94.32;47.13;;;12.10;99.90;;;;;;4993634;28;20712;-64
2023/05/12 05:04:36;;;;;;;90.00;45.25;;;12.30;99.90;;;;;;4971843;28;20389;-64
2023/05/12 05:07:02;;;;;;;85.43;44.08;;;12.20;99.90;;;;;;4974917;28;20401;-64
2023/05/12 05:09:28;;;;;;;88.47;45.58;;;12.30;99.90;;;;;;4975379;28;20054;-63
2023/05/12 05:11:54;;;;;;;80.20;40.90;;;12.40;99.90;;;;;;5010443;28;20048;-64
2023/05/12 05:14:20;;;;;;;85.32;44.70;;;12.40;99.90;;;;;;4989619;28;20412;-63
2023/05/12 05:16:46;;;;;;;83.65;44.15;;;12.40;99.90;;;;;;4988331;28;20690;-65
2023/05/12 05:19:12;;;;;;;84.82;45.60;;;12.50;99.90;;;;;;4992805;28;20054;-64
2023/05/12 05:21:38;;;;;;;85.68;47.78;;;12.60;99.90;;;;;;4976357;28;20074;-65
2023/05/12 05:24:04;;;;;;;85.13;49.83;;;12.80;99.90;;;;;;4958836;28;20215;-64
2023/05/12 05:26:31;;;;;;;90.57;47.67;;;12.60;99.90;;;;;;4963191;28;20081;-64
2023/05/12 05:28:57;;;;;;;95.70;52.55;;;12.70;99.90;;;;;;4993450;28;20232;-64
2023/05/12 05:31:23;;;;;;;81.63;47.70;;;13.00;99.90;;;;;;5011685;28;20640;-64
2023/05/12 05:33:48;;;;;;;98.25;52.70;;;12.90;99.90;;;;;;4974411;28;20073;-64
2023/05/12 05:36:15;;;;;;;95.75;54.03;;;13.00;99.90;;;;;;5018104;28;20156;-66
2023/05/12 05:38:41;;;;;;;87.97;50.17;;;13.00;99.90;;;;;;4983293;28;20053;-64
2023/05/12 05:41:07;;;;;;;102.60;55.28;;;12.90;99.90;;;;;;4978910;28;20077;-64
2023/05/12 05:43:32;;;;;;;98.80;55.15;;;13.30;99.90;;;;;;5007984;28;20038;-64
2023/05/12 05:45:58;;;;;;;99.00;54.72;;;13.20;99.90;;;;;;4960745;28;20681;-65
2023/05/12 05:48:24;;;;;;;91.28;53.03;;;13.30;99.90;;;;;;4967316;28;20042;-64
2023/05/12 05:50:51;;;;;;;97.05;52.10;;;13.10;99.90;;;;;;4981744;28;20579;-64
2023/05/12 05:53:19;;;;;;;89.35;53.13;;;13.00;99.90;;;;;;5006774;28;20564;-64
2023/05/12 05:55:45;;;;;;;94.00;55.42;;;13.50;99.90;;;;;;4974901;28;20069;-64
2023/05/12 05:58:11;;;;;;;88.00;52.15;;;13.10;99.90;;;;;;4971856;28;20397;-64
2023/05/12 06:00:37;;;;;;;82.95;49.95;;;13.10;99.90;;;;;;5015664;28;20041;-65
2023/05/12 06:03:02;;;;;;;91.40;54.10;;;13.50;99.90;;;;;;4944319;28;20480;-64
2023/05/12 06:05:28;;;;;;;85.75;52.67;;;13.50;99.90;;;;;;4972589;28;20038;-64
2023/05/12 06:07:54;;;;;;;81.47;51.72;;;13.40;99.90;;;;;;5003343;28;20330;-64
2023/05/12 06:10:20;;;;;;;91.50;57.08;;;13.60;99.90;;;;;;4971796;28;20042;-64
2023/05/12 06:12:46;;;;;;;88.90;53.45;;;13.40;99.90;;;;;;4995810;28;20132;-64
2023/05/12 06:15:11;;;;;;;86.82;54.33;;;13.60;99.90;;;;;;4993951;28;20052;-64
2023/05/12 06:17:38;;;;;;;94.22;54.65;;;13.60;99.90;;;;;;4979300;28;20102;-64
2023/05/12 06:20:04;;;;;;;84.38;50.92;;;13.60;99.90;;;;;;4988049;28;20152;-64
2023/05/12 06:22:30;;;;;;;78.43;51.30;;;13.60;99.90;;;;;;5004149;28;20046;-64
2023/05/12 06:24:56;;;;;;;88.55;55.08;;;13.40;99.90;;;;;;4994516;28;20573;-64
2023/05/12 06:27:22;;;;;;;81.32;51.50;;;13.70;99.90;;;;;;4988370;28;20057;-64
2023/05/12 06:29:47;;;;;;;86.28;55.55;;;13.70;99.90;;;;;;4939445;28;20046;-64
2023/05/12 06:32:13;;;;;;;81.18;53.35;;;13.40;99.90;;;;;;4972326;28;20042;-64
2023/05/12 06:34:39;;;;;;;78.88;50.65;;;13.40;99.90;;;;;;4955453;28;20034;-64
2023/05/12 06:37:05;;;;;;;82.07;53.80;;;13.70;99.90;;;;;;5016043;28;20333;-64
2023/05/12 06:39:31;;;;;;;83.43;53.42;;;13.50;99.90;;;;;;4973812;28;20401;-64
2023/05/12 06:41:57;;;;;;;86.05;53.88;;;13.80;99.90;;;;;;4990621;28;20045;-64
2023/05/12 06:44:23;;;;;;;79.20;53.40;;;13.70;99.90;;;;;;4974002;28;20038;-64
2023/05/12 06:46:49;;;;;;;83.63;53.92;;;13.70;99.90;;;;;;4974661;28;20440;-65
2023/05/12 06:49:14;;;;;;;80.85;53.75;;;13.70;99.90;;;;;;5003752;28;21010;-64
2023/05/12 06:51:40;;;;;;;85.40;56.15;;;13.50;99.90;;;;;;4954967;28;20125;-64
2023/05/12 06:54:06;;;;;;;83.45;53.28;;;13.70;99.90;;;;;;4971337;28;20207;-64
2023/05/12 06:56:32;;;;;;;76.20;52.42;;;13.70;99.90;;;;;;4971480;28;20053;-65
2023/05/12 06:59:01;;;;;;;74.57;52.13;;;13.70;99.90;;;;;;4965327;28;20078;-64
2023/05/12 07:01:31;;;;;;;76.50;52.17;;;14.00;99.90;;;;;;4990394;28;20459;-64
2023/05/12 07:03:57;;;;;;;77.25;53.00;;;13.90;99.90;;;;;;4990334;28;20676;-64
2023/05/12 07:06:26;;;;;;;76.72;53.63;;;14.00;99.90;;;;;;4984349;28;20042;-64
2023/05/12 07:08:52;;;;;;;74.78;51.00;;;14.10;99.90;;;;;;4993837;28;20046;-64
2023/05/12 07:11:21;;;;;;;75.85;52.30;;;13.80;99.90;;;;;;4970825;28;20298;-65
2023/05/12 07:13:50;;;;;;;77.95;53.38;;;13.80;99.90;;;;;;5004658;28;20077;-62
2023/05/12 07:16:17;;;;;;;75.80;52.63;;;14.00;99.90;;;;;;5009463;28;20061;-64
2023/05/12 07:18:44;;;;;;;79.45;53.60;;;14.00;99.90;;;;;;4987333;28;20049;-63
2023/05/12 07:21:11;;;;;;;76.88;54.35;;;14.40;99.90;;;;;;4954977;28;20042;-65
2023/05/12 07:23:38;;;;;;;70.50;51.50;;;14.30;99.90;;;;;;4998915;28;20622;-64
2023/05/12 07:26:05;;;;;;;70.05;52.35;;;14.60;99.90;;;;;;4998009;28;20108;-64
2023/05/12 07:28:34;;;;;;;68.63;51.63;;;14.70;99.90;;;;;;5035695;28;20484;-63
2023/05/12 07:31:01;;;;;;;68.05;49.42;;;14.60;99.90;;;;;;4986971;28;20061;-63
2023/05/12 07:33:27;;;;;;;62.38;48.63;;;14.60;99.90;;;;;;5019039;28;20058;-63
2023/05/12 07:35:53;;;;;;;63.67;48.70;;;14.80;99.90;;;;;;4995538;28;20484;-63
2023/05/12 07:38:19;;;;;;;62.08;48.05;;;14.90;99.90;;;;;;4997703;28;20099;-64
2023/05/12 07:40:45;;;;;;;62.75;48.45;;;15.20;99.90;;;;;;4984202;28;20524;-64
2023/05/12 07:43:11;;;;;;;61.10;48.13;;;15.20;99.90;;;;;;5006270;28;20404;-63
2023/05/12 07:45:37;;;;;;;58.70;46.33;;;15.40;99.90;;;;;;4991461;28;20046;-63
2023/05/12 07:48:02;;;;;;;58.85;45.78;;;15.70;99.90;;;;;;4970837;28;20057;-63
2023/05/12 07:50:28;;;;;;;59.13;47.78;;;15.40;99.90;;;;;;4970923;28;20115;-65
2023/05/12 07:52:54;;;;;;;55.60;46.55;;;15.80;99.90;;;;;;4973753;28;20049;-63
2023/05/12 07:55:21;;;;;;;55.13;45.45;;;15.70;99.90;;;;;;5015703;28;20137;-63
2023/05/12 07:57:48;;;;;;;52.30;43.92;;;16.00;99.90;;;;;;4988714;28;20066;-63
2023/05/12 08:00:14;;;;;;;53.63;44.70;;;16.30;99.90;;;;;;5021245;28;20064;-64
2023/05/12 08:02:41;;;;;;;47.97;41.75;;;16.50;99.90;;;;;;5004454;28;20046;-63
2023/05/12 08:05:11;;;;;;;47.45;41.22;;;16.50;99.90;;;;;;5005402;28;20420;-64
2023/05/12 08:07:38;;;;;;;46.45;41.38;;;16.80;99.90;;;;;;5005056;28;20060;-64
2023/05/12 08:10:05;;;;;;;46.67;40.50;;;16.70;99.90;;;;;;4988993;28;20041;-62
2023/05/12 08:12:31;;;;;;;46.85;40.75;;;16.80;96.70;;;;;;4985723;28;20038;-63
2023/05/12 08:14:57;;;;;;;45.97;40.00;;;17.10;99.90;;;;;;4994819;28;20042;-64
2023/05/12 08:17:23;;;;;;;42.00;37.50;;;17.10;44.30;;;;;;4991342;28;20108;-63
2023/05/12 08:19:49;;;;;;;42.58;37.92;;;17.40;1.00;;;;;;5003078;28;20046;-64
2023/05/12 08:22:15;;;;;;;41.70;37.15;;;17.60;1.00;;;;;;4988293;28;20042;-63
2023/05/12 08:24:40;;;;;;;42.03;37.58;;;17.90;1.00;;;;;;4986426;28;20523;-65
2023/05/12 08:27:06;;;;;;;43.05;38.28;;;18.30;99.90;;;;;;4997906;28;20041;-63
2023/05/12 08:29:32;;;;;;;40.97;36.58;;;18.40;99.90;;;;;;5007531;28;20077;-63
2023/05/12 08:31:58;;;;;;;41.17;36.90;;;18.30;99.90;;;;;;4987600;28;20456;-64
2023/05/12 08:34:24;;;;;;;40.05;35.38;;;18.30;99.90;;;;;;5004266;28;20085;-63
2023/05/12 08:36:53;;;;;;;39.67;35.22;;;18.40;99.90;;;;;;4990097;28;20053;-65
2023/05/12 08:39:20;;;;;;;39.67;35.47;;;18.50;99.90;;;;;;5006588;28;20093;-63
2023/05/12 08:42:26;;;;;;;39.17;35.00;;;18.60;99.90;;;;;;5005606;28;20054;-63
2023/05/12 08:44:54;;;;;;;37.88;33.88;;;18.60;1.00;;;;;;4980720;28;20515;-63
2023/05/12 08:47:24;;;;;;;35.92;32.35;;;18.80;99.90;;;;;;5005318;28;20048;-63
2023/05/12 08:50:01;;;;;;;37.83;31.90;;;18.90;99.90;;;;;;5003750;28;20068;-63
2023/05/12 08:52:30;;;;;;;33.28;29.80;;;19.30;99.90;;;;;;4985009;28;20038;-64
2023/05/12 08:54:58;;;;;;;32.40;29.00;;;19.60;99.90;;;;;;4986632;28;20060;-63
2023/05/12 08:57:24;;;;;;;31.15;28.05;;;20.00;99.90;;;;;;4994904;28;20081;-63
2023/05/12 08:59:54;;;;;;;30.42;27.23;;;20.20;99.90;;;;;;5001064;28;20034;-64
2023/05/12 09:02:22;;;;;;;28.40;25.50;;;20.20;72.40;;;;;;5018312;28;20038;-63
2023/05/12 09:04:48;;;;;;;28.95;25.90;;;20.20;99.90;;;;;;5017726;28;20039;-64
2023/05/12 09:07:15;;;;;;;28.25;25.35;;;20.30;1.00;;;;;;5018163;28;20088;-63
2023/05/12 09:09:44;;;;;;;26.40;23.67;;;20.50;1.00;;;;;;4968814;28;20046;-63
2023/05/12 09:12:14;;;;;;;25.80;23.30;;;20.60;99.90;;;;;;4984401;28;20053;-64
2023/05/12 09:14:43;;;;;;;24.00;21.80;;;20.80;99.90;;;;;;4992483;28;20060;-64
2023/05/12 09:17:11;;;;;;;23.08;20.98;;;21.00;99.90;;;;;;4977088;28;20049;-64
2023/05/12 09:19:36;;;;;;;22.02;19.90;;;21.40;99.90;;;;;;4992322;28;20466;-64
2023/05/12 09:22:02;;;;;;;24.33;21.70;;;21.70;99.90;;;;;;4978199;28;20496;-65
2023/05/12 09:24:38;;;;;;;21.27;19.13;;;21.90;99.90;;;;;;5012943;28;20532;-64
2023/05/12 09:27:05;;;;;;;21.23;19.02;;;22.10;99.90;;;;;;5025011;28;20377;-65
2023/05/12 09:29:32;;;;;;;20.50;18.52;;;22.20;99.90;;;;;;4992356;28;20680;-65
2023/05/12 09:32:00;;;;;;;18.30;16.52;;;22.30;99.90;;;;;;4976053;28;20361;-65
2023/05/12 09:34:37;;;;;;;18.30;16.55;;;22.50;99.90;;;;;;4974245;28;20041;-65
2023/05/12 09:37:06;;;;;;;18.08;16.38;;;22.70;99.90;;;;;;4992176;28;20046;-65
2023/05/12 09:39:33;;;;;;;19.17;14.90;;;22.30;99.90;;;;;;4991347;28;20100;-66
2023/05/12 09:41:59;;;;;;;18.45;14.52;;;21.90;99.90;;;;;;4987343;28;20044;-65
2023/05/12 09:44:25;;;;;;;15.57;13.23;;;21.60;99.90;;;;;;4997444;28;20081;-65
2023/05/12 09:46:51;;;;;;;14.75;13.38;;;21.60;99.90;;;;;;4999972;28;20046;-66
2023/05/12 09:49:19;;;;;;;15.43;14.13;;;21.70;99.90;;;;;;4975124;28;20296;-67
2023/05/12 09:51:45;;;;;;;14.93;13.52;;;21.90;99.90;;;;;;4975840;28;20054;-66
2023/05/12 09:54:10;;;;;;;13.45;12.25;;;22.00;99.90;;;;;;4960114;28;20416;-66
2023/05/12 09:56:37;;;;;;;14.68;13.27;;;22.10;99.90;;;;;;4992297;28;20057;-66
2023/05/12 09:59:04;;;;;;;13.85;12.55;;;22.30;99.90;;;;;;4958708;28;20355;-66
2023/05/12 10:01:30;;;;;;;13.63;12.43;;;22.30;99.90;;;;;;4973158;28;20038;-66
2023/05/12 10:03:57;;;;;;;12.05;10.85;;;22.80;90.80;;;;;;4988359;28;20050;-66
2023/05/12 10:06:27;;;;;;;13.52;10.75;;;23.10;1.00;;;;;;4972799;28;20138;-66
2023/05/12 10:09:04;;;;;;;11.90;10.70;;;23.30;1.00;;;;;;4957223;28;20496;-66
2023/05/12 10:11:30;;;;;;;12.25;10.77;;;23.60;1.00;;;;;;5005934;28;20046;-66
2023/05/12 10:13:57;;;;;;;11.10;10.18;;;23.70;1.00;;;;;;4966036;28;20789;-66
2023/05/12 10:16:25;;;;;;;10.50;9.45;;;23.90;1.00;;;;;;4991785;28;20042;-66
2023/05/12 10:18:51;;;;;;;10.02;9.02;;;24.10;99.90;;;;;;4956125;28;20050;-66
2023/05/12 10:21:17;;;;;;;10.40;9.40;;;24.00;99.90;;;;;;4956409;28;20050;-66
2023/05/12 10:23:43;;;;;;;10.02;9.23;;;24.00;99.90;;;;;;4963868;28;20033;-66
2023/05/12 10:26:10;;;;;;;10.05;9.13;;;24.10;99.90;;;;;;4975362;28;20735;-66
2023/05/12 10:28:36;;;;;;;8.55;7.82;;;24.30;99.90;;;;;;4974883;28;20125;-66
2023/05/12 10:31:06;;;;;;;9.48;8.68;;;24.50;99.90;;;;;;4991015;28;20380;-67
2023/05/12 10:33:32;;;;;;;9.45;8.57;;;24.40;99.90;;;;;;4987310;28;20348;-67
2023/05/12 10:35:58;;;;;;;9.35;8.45;;;24.50;99.90;;;;;;4975062;28;20387;-66
2023/05/12 10:38:24;;;;;;;8.38;7.57;;;24.10;99.90;;;;;;4959464;28;20713;-67
2023/05/12 10:41:02;;;;;;;8.30;7.50;;;24.10;99.90;;;;;;5004787;28;20235;-66
2023/05/12 10:43:37;;;;;;;8.27;7.38;;;23.90;99.90;;;;;;4971690;28;20164;-66
2023/05/12 10:46:15;;;;;;;7.57;6.90;;;24.10;99.90;;;;;;4972315;28;20077;-66
2023/05/12 10:49:02;;;;;;;7.22;6.43;;;24.30;99.90;;;;;;4956828;28;20482;-67
2023/05/12 10:51:33;;;;;;;7.43;6.03;;;24.40;99.90;;;;;;4972173;28;20054;-66
2023/05/12 10:54:06;;;;;;;7.28;6.68;;;24.70;99.90;;;;;;4981685;28;20057;-66
2023/05/12 10:56:38;;;;;;;7.50;6.20;;;24.70;99.90;;;;;;5022980;28;20037;-66
2023/05/12 10:59:18;;;;;;;7.60;5.50;;;24.80;99.90;;;;;;4974566;28;20037;-66
2023/05/12 11:01:57;;;;;;;7.03;6.05;;;25.10;99.90;;;;;;4975137;28;20048;-67
2023/05/12 11:04:34;;;;;;;7.47;5.43;;;25.40;99.90;;;;;;4988119;28;20644;-66
2023/05/12 11:06:59;;;;;;;5.10;4.55;;;25.60;99.90;;;;;;4990292;28;20089;-67
2023/05/12 11:09:25;;;;;;;6.28;4.68;;;25.70;99.90;;;;;;4990666;28;20389;-66
2023/05/12 11:11:51;;;;;;;5.43;5.00;;;25.80;99.90;;;;;;4974202;28;20263;-68
2023/05/12 11:14:17;;;;;;;5.82;4.55;;;25.90;23.40;;;;;;4973438;28;20131;-67
2023/05/12 11:16:43;;;;;;;6.55;4.50;;;25.80;99.90;;;;;;4972980;28;20385;-67
2023/05/12 11:19:10;;;;;;;5.00;4.50;;;26.10;99.90;;;;;;4972001;28;20041;-67
2023/05/12 11:21:37;;;;;;;4.85;4.35;;;26.30;99.90;;;;;;4991185;28;20400;-66
2023/05/12 11:24:03;;;;;;;5.32;3.88;;;26.40;85.60;;;;;;4988463;28;20524;-67
2023/05/12 11:26:29;;;;;;;6.70;3.92;;;26.10;1.00;;;;;;4971840;28;20498;-67
2023/05/12 11:29:01;;;;;;;4.60;3.58;;;26.10;12.00;;;;;;4970728;28;20145;-67
2023/05/12 11:31:27;;;;;;;6.15;4.40;;;26.20;2.00;;;;;;4991406;28;20049;-67
2023/05/12 11:34:06;;;;;;;5.68;3.95;;;26.20;1.00;;;;;;4974553;28;20049;-67
2023/05/12 11:36:44;;;;;;;5.47;4.97;;;26.10;1.00;;;;;;4974202;28;20544;-67
2023/05/12 11:39:17;;;;;;;4.45;4.05;;;26.20;1.00;;;;;;4967567;28;20538;-67
2023/05/12 11:41:44;;;;;;;5.10;4.00;;;26.30;1.00;;;;;;4972171;28;20046;-67
2023/05/12 11:44:17;;;;;;;7.22;4.07;;;26.40;1.00;;;;;;4939935;28;20500;-67
2023/05/12 11:47:12;;;;;;;4.07;3.67;;;26.60;1.00;;;;;;4961178;28;20034;-67
2023/05/12 11:49:49;;;;;;;4.40;3.45;;;26.80;1.00;;;;;;4966119;28;20108;-68
2023/05/12 11:52:16;;;;;;;3.90;3.60;;;26.70;1.00;;;;;;4993389;28;20295;-67
2023/05/12 11:54:55;;;;;;;3.38;3.03;;;26.50;99.90;;;;;;4972604;28;20046;-67
2023/05/12 11:57:25;;;;;;;7.45;2.78;;;26.30;99.90;;;;;;4972130;28;20050;-66
2023/05/12 11:59:59;;;;;;;3.20;2.42;;;26.00;99.90;;;;;;4955295;28;20043;-67
2023/05/12 12:02:26;;;;;;;2.58;2.00;;;26.10;1.00;;;;;;4973553;28;20033;-66
2023/05/12 12:04:52;;;;;;;3.50;2.33;;;26.10;99.90;;;;;;4991002;28;20069;-67
2023/05/12 12:07:31;;;;;;;4.47;4.00;;;26.20;99.90;;;;;;4958407;28;20044;-67
2023/05/12 12:09:57;;;;;;;8.00;6.80;;;26.20;1.00;;;;;;4990668;28;20041;-67
2023/05/12 12:12:23;;;;;;;7.35;6.32;;;26.10;99.90;;;;;;4953190;28;20081;-67
2023/05/12 12:14:48;;;;;;;7.90;7.18;;;25.80;99.90;;;;;;4971401;28;20085;-66
2023/05/12 12:17:14;;;;;;;7.40;6.70;;;25.40;99.90;;;;;;4939544;28;20160;-67
2023/05/12 12:19:40;;;;;;;7.75;6.95;;;25.30;99.90;;;;;;4971918;28;20050;-67
2023/05/12 12:22:06;;;;;;;8.48;7.57;;;25.20;99.90;;;;;;5005143;28;20424;-67
2023/05/12 12:24:32;;;;;;;7.93;7.13;;;25.10;99.90;;;;;;4973332;28;20054;-66
2023/05/12 12:26:57;;;;;;;9.27;7.32;;;25.00;99.90;;;;;;4973805;28;20045;-66
2023/05/12 12:29:25;;;;;;;8.40;6.70;;;25.00;99.90;;;;;;4976111;28;20065;-67
2023/05/12 12:31:50;;;;;;;8.10;7.30;;;24.90;99.90;;;;;;4977683;28;20049;-67